Dallas, OR (97338)

4:19 AM PST on February 01, 2015 (GMT -0800)
City View | Change Station
CLOSE
Current Station
Personal Weather Station
Location: Dallas, OR
Elevation: 435 ft
Nearby Weather Stations

Elev 435 ft 44.92 °N, 123.33 °W | Updated 2 seconds ago

Overcast
Overcast
38.3 °F
Feels Like 38 °F
N
0.0
Wind Variable Wind from NE
Gusts 1.0 mph

Today
High -- | Low -- °F
--% Chance of Precip.
Yesterday
High -- | Low -- °F
Precip. -- in
7:33 AM 5:21 PM
Waxing Gibbous, 94% visible
Pressure 30.11 in
Visibility 7.0 miles
Clouds Scattered Clouds 400 ft
Overcast 10000 ft
Windchill 38 °F
Dew Point 33 °F
Humidity 81%
Rainfall 0.00 in
Snow Depth Not available.
UV 0 out of 12
Pollen 3.60 out of 12
Air Quality Not available.
Flu Activity Not available.
SPECI KSLE 011214Z AUTO 00000KT 7SM -RA SCT004 OVC100 04/03 A3011 RMK AO2 RAE02B14 P0000 T00390033

More Conditions Fewer Conditions

Pressure 30.11 in
Visibility 7.0 miles
Clouds Scattered Clouds 400 ft
Overcast 10000 ft
Windchill 38 °F
Dew Point 33 °F
Humidity 81%
Rainfall 0.00 in
Snow Depth Not available.
UV 0 out of 12
Pollen 3.60 out of 12
Air Quality Not available.
Flu Activity Not available.
SPECI KSLE 011214Z AUTO 00000KT 7SM -RA SCT004 OVC100 04/03 A3011 RMK AO2 RAE02B14 P0000 T00390033

More Conditions Fewer Conditions

10-Day Weather Forecast

Almanac

Astronomy

Feb. 01, 2015 Rise Set
Actual Time
Civil Twilight
Nautical Twilight
Astronomical Twilight
Moon
Length of Visible Light
Length of Day
Tomorrow will be .
, % of the Moon is Illuminated

Today's Extremes

State Highs State Lows

Community

WunderPhotos

Upload Photos

1,792,349 photos uploaded!

WunderBlogs® & News

Nearby

Air Quality

  Air Quality AQ Index Pollutant
Not available.

Snow Depth

Station Depth Elevation

Earthquake Activity

City Distance Mag. Time & Date
Minimum magnitude displayed is 2.5.

Coastal Water Temperatures

Place Temperature

Nearby Weather Stations